Time;durP1;ratioP1;P1;durP2;ratioP2;P2;SDS_P1;SDS_P2;PMS_P1;PMS_P2;Temp;Humidity;BMP_temperature;BMP_pressure;BME280_temperature;BME280_humidity;BME280_pressure;Samples;Min_cycle;Max_cycle;Signal;HPM_P1;HPM_P2
2020/12/08 00:00:27;;;;;;;28.35;24.05;;;6.50;1.00;;;;;;5030647;28;20230;-74
2020/12/08 00:02:54;;;;;;;27.60;22.65;;;6.50;1.00;;;;;;5006614;28;20226;-75
2020/12/08 00:05:21;;;;;;;26.63;21.90;;;6.60;1.00;;;;;;5033609;28;21115;-74
2020/12/08 00:07:49;;;;;;;26.92;22.60;;;6.60;1.00;;;;;;5017077;28;20226;-75
2020/12/08 00:10:18;;;;;;;30.20;23.60;;;6.60;1.00;;;;;;5031497;28;20911;-74
2020/12/08 00:12:46;;;;;;;32.60;24.75;;;6.60;1.00;;;;;;5015045;28;20225;-74
2020/12/08 00:15:13;;;;;;;30.80;23.00;;;6.60;1.00;;;;;;5026428;28;20698;-75
2020/12/08 00:17:39;;;;;;;30.33;25.45;;;6.60;1.00;;;;;;5013928;28;21013;-74
2020/12/08 00:20:08;;;;;;;27.88;23.75;;;6.50;1.00;;;;;;5030188;28;20236;-74
2020/12/08 00:22:34;;;;;;;33.03;25.38;;;6.50;1.00;;;;;;5022851;28;20233;-74
2020/12/08 00:25:01;;;;;;;31.50;24.83;;;6.50;1.00;;;;;;5022871;28;21160;-74
2020/12/08 00:27:28;;;;;;;29.85;26.63;;;6.40;1.00;;;;;;5029904;28;20245;-74
2020/12/08 00:29:54;;;;;;;30.85;24.63;;;6.40;1.00;;;;;;5010996;28;20309;-74
2020/12/08 00:32:20;;;;;;;31.67;25.67;;;6.40;1.00;;;;;;5029964;28;21074;-74
2020/12/08 00:34:46;;;;;;;33.53;26.30;;;6.40;1.00;;;;;;5012748;28;20217;-73
2020/12/08 00:37:12;;;;;;;30.52;25.90;;;6.40;1.00;;;;;;5027172;28;20233;-73
2020/12/08 00:39:38;;;;;;;30.30;25.92;;;6.40;1.00;;;;;;5018144;28;20296;-74
2020/12/08 00:42:06;;;;;;;32.38;28.58;;;6.30;1.00;;;;;;5029512;28;20711;-73
2020/12/08 00:44:32;;;;;;;36.53;28.67;;;6.30;1.00;;;;;;5014630;28;20304;-74
2020/12/08 00:46:59;;;;;;;37.30;29.40;;;6.30;1.00;;;;;;5024813;28;20981;-74
2020/12/08 00:49:25;;;;;;;31.48;27.25;;;6.30;1.00;;;;;;5010579;28;20307;-74
2020/12/08 00:51:55;;;;;;;30.55;26.65;;;6.30;1.00;;;;;;5024627;28;20238;-74
2020/12/08 00:54:22;;;;;;;32.83;27.70;;;6.30;1.00;;;;;;4994008;28;21035;-73
2020/12/08 00:56:48;;;;;;;38.20;29.38;;;6.20;1.00;;;;;;5030557;28;20322;-73
2020/12/08 00:59:15;;;;;;;38.03;30.85;;;6.20;1.00;;;;;;5010040;28;20280;-75
2020/12/08 01:01:42;;;;;;;34.38;27.55;;;6.20;1.00;;;;;;5028641;28;20230;-74
2020/12/08 01:04:08;;;;;;;36.92;30.13;;;6.20;1.00;;;;;;5028624;28;20230;-73
2020/12/08 01:06:36;;;;;;;38.13;30.50;;;6.20;1.00;;;;;;5023837;28;20312;-73
2020/12/08 01:09:03;;;;;;;39.47;29.55;;;6.10;1.00;;;;;;5032997;28;20285;-74
2020/12/08 01:11:29;;;;;;;37.92;30.65;;;6.00;1.00;;;;;;5017855;28;20252;-74
2020/12/08 01:13:55;;;;;;;36.95;29.02;;;5.90;1.00;;;;;;5030803;28;20234;-73
2020/12/08 01:16:24;;;;;;;36.20;29.50;;;5.80;1.00;;;;;;4996461;28;20246;-73
2020/12/08 01:18:51;;;;;;;38.17;30.27;;;5.70;1.00;;;;;;5030385;28;20595;-73
2020/12/08 01:21:17;;;;;;;37.75;30.50;;;5.60;1.00;;;;;;5000694;28;20234;-74
2020/12/08 01:23:44;;;;;;;41.58;32.67;;;5.60;1.00;;;;;;5024602;28;20538;-74
2020/12/08 01:26:10;;;;;;;44.00;34.15;;;5.50;1.00;;;;;;5009958;28;20221;-73
2020/12/08 01:28:36;;;;;;;40.90;31.83;;;5.50;1.00;;;;;;5027814;28;20309;-74
2020/12/08 01:31:02;;;;;;;41.65;32.42;;;5.50;1.00;;;;;;5012778;28;21023;-73
2020/12/08 01:33:29;;;;;;;44.15;33.78;;;5.50;1.00;;;;;;5029394;28;20686;-74
2020/12/08 01:35:58;;;;;;;40.13;32.78;;;5.40;1.00;;;;;;5010018;28;20793;-73
2020/12/08 01:38:24;;;;;;;42.30;32.47;;;5.40;1.00;;;;;;5025757;28;21107;-73
2020/12/08 01:40:53;;;;;;;39.70;31.73;;;5.40;1.00;;;;;;5012680;28;20226;-74
2020/12/08 01:43:20;;;;;;;43.13;33.78;;;5.50;1.00;;;;;;5025110;28;20222;-73
2020/12/08 01:45:46;;;;;;;39.95;31.25;;;5.50;1.00;;;;;;5036696;28;20226;-73
2020/12/08 01:48:13;;;;;;;42.10;32.75;;;5.50;1.00;;;;;;5022018;28;20254;-73
2020/12/08 01:50:40;;;;;;;45.92;34.45;;;5.70;1.00;;;;;;5042055;28;20265;-73
2020/12/08 01:53:06;;;;;;;42.40;31.80;;;5.70;1.00;;;;;;5019472;28;20261;-74
2020/12/08 01:55:34;;;;;;;43.63;33.55;;;5.80;1.00;;;;;;5032467;28;20293;-74
2020/12/08 01:58:00;;;;;;;41.05;32.92;;;5.70;1.00;;;;;;5012481;28;21613;-73
2020/12/08 02:00:26;;;;;;;43.15;34.67;;;5.70;1.00;;;;;;5031550;28;20736;-74
2020/12/08 02:02:52;;;;;;;43.35;32.58;;;5.80;1.00;;;;;;5019923;28;20221;-74
2020/12/08 02:05:18;;;;;;;43.70;33.65;;;5.80;1.00;;;;;;5037282;28;20317;-74
2020/12/08 02:07:46;;;;;;;41.50;32.55;;;5.90;1.00;;;;;;5020649;28;20232;-74
2020/12/08 02:10:12;;;;;;;42.55;33.35;;;5.80;1.00;;;;;;5030099;28;21120;-73
2020/12/08 02:12:38;;;;;;;42.72;32.97;;;5.80;1.00;;;;;;5021637;28;20241;-74
2020/12/08 02:15:04;;;;;;;41.78;31.92;;;5.90;1.00;;;;;;5034583;28;20218;-74
2020/12/08 02:17:30;;;;;;;42.42;32.05;;;5.90;1.00;;;;;;5015354;28;20245;-73
2020/12/08 02:19:57;;;;;;;42.63;31.80;;;5.90;1.00;;;;;;5037794;28;20611;-74
2020/12/08 02:22:24;;;;;;;39.92;32.42;;;6.00;1.00;;;;;;5020708;28;20221;-73
2020/12/08 02:24:50;;;;;;;39.88;31.15;;;6.00;1.00;;;;;;5035429;28;20714;-73
2020/12/08 02:27:16;;;;;;;42.58;31.88;;;6.00;1.00;;;;;;5015499;28;21599;-73
2020/12/08 02:29:42;;;;;;;42.50;31.35;;;6.00;1.00;;;;;;5021354;28;20236;-73
2020/12/08 02:32:08;;;;;;;47.85;35.30;;;6.00;1.00;;;;;;5036248;28;21133;-73
2020/12/08 02:34:35;;;;;;;44.00;34.97;;;6.00;1.00;;;;;;5022441;28;20226;-73
2020/12/08 02:37:02;;;;;;;43.65;32.20;;;5.90;1.00;;;;;;5035003;28;20238;-73
2020/12/08 02:39:28;;;;;;;43.55;34.92;;;6.00;1.00;;;;;;5024569;28;20451;-73
2020/12/08 02:41:55;;;;;;;42.40;32.85;;;5.90;1.00;;;;;;5030865;28;20223;-73
2020/12/08 02:44:21;;;;;;;40.47;31.55;;;5.90;1.00;;;;;;5017936;28;20234;-73
2020/12/08 02:46:50;;;;;;;43.65;35.83;;;5.90;1.00;;;;;;5030083;28;20720;-73
2020/12/08 02:49:18;;;;;;;44.08;31.83;;;5.90;1.00;;;;;;5024169;28;20214;-73
2020/12/08 02:51:44;;;;;;;43.25;34.03;;;5.90;1.00;;;;;;5049605;28;20288;-73
2020/12/08 02:54:12;;;;;;;44.30;31.73;;;5.90;1.00;;;;;;5046788;28;20224;-73
2020/12/08 02:56:38;;;;;;;42.25;32.95;;;5.90;1.00;;;;;;5052895;28;20225;-73
2020/12/08 02:59:04;;;;;;;42.47;32.47;;;5.90;1.00;;;;;;5042298;28;20573;-74
2020/12/08 03:01:31;;;;;;;42.25;32.70;;;5.90;1.00;;;;;;5036589;28;20225;-72
2020/12/08 03:03:57;;;;;;;40.92;30.33;;;5.90;1.00;;;;;;5022170;28;20226;-72
2020/12/08 03:06:23;;;;;;;46.03;34.97;;;5.90;1.00;;;;;;5031052;28;20224;-72
2020/12/08 03:08:50;;;;;;;41.95;34.08;;;5.90;1.00;;;;;;5016109;28;20325;-72
2020/12/08 03:11:17;;;;;;;45.55;33.20;;;5.90;1.00;;;;;;5014370;28;20232;-73
2020/12/08 03:13:44;;;;;;;41.88;32.40;;;5.90;1.00;;;;;;5033435;28;20773;-73
2020/12/08 03:16:10;;;;;;;42.00;32.60;;;5.90;1.00;;;;;;4996898;28;20308;-73
2020/12/08 03:18:40;;;;;;;47.65;33.50;;;5.90;1.00;;;;;;5031271;28;20230;-74
2020/12/08 03:21:06;;;;;;;42.78;31.70;;;5.90;1.00;;;;;;5013864;28;20253;-74
2020/12/08 03:23:33;;;;;;;44.03;33.70;;;5.90;1.00;;;;;;5038346;28;20218;-73
2020/12/08 03:25:59;;;;;;;45.25;32.47;;;5.90;1.00;;;;;;5017681;28;20301;-73
2020/12/08 03:28:26;;;;;;;40.33;31.75;;;6.00;1.00;;;;;;5037291;28;20260;-73
2020/12/08 03:30:52;;;;;;;43.70;32.22;;;6.00;1.00;;;;;;4999633;28;21929;-73
2020/12/08 03:33:18;;;;;;;42.60;33.15;;;6.00;1.00;;;;;;5038891;28;20218;-73
2020/12/08 03:35:44;;;;;;;43.38;33.83;;;5.90;1.00;;;;;;5002184;28;20219;-74
2020/12/08 03:38:10;;;;;;;43.50;32.58;;;6.00;1.00;;;;;;5040123;28;20238;-74
2020/12/08 03:40:36;;;;;;;45.67;34.17;;;5.90;1.00;;;;;;5024266;28;20305;-73
2020/12/08 03:43:02;;;;;;;50.83;35.88;;;5.90;1.00;;;;;;5032921;28;20226;-74
2020/12/08 03:45:31;;;;;;;44.88;32.40;;;5.90;1.00;;;;;;5019782;28;20335;-74
2020/12/08 03:47:57;;;;;;;46.22;34.28;;;5.90;1.00;;;;;;5026134;28;20309;-74
2020/12/08 03:50:24;;;;;;;43.33;32.75;;;5.90;1.00;;;;;;5027809;28;20300;-74
2020/12/08 03:52:51;;;;;;;45.58;33.30;;;5.90;1.00;;;;;;4997537;28;20233;-74
2020/12/08 03:55:17;;;;;;;45.47;35.75;;;5.90;1.00;;;;;;5024186;28;20244;-74
2020/12/08 03:57:43;;;;;;;48.67;32.20;;;5.90;1.00;;;;;;5012540;28;20238;-74
2020/12/08 04:00:10;;;;;;;50.40;35.70;;;5.90;1.00;;;;;;5022878;28;21917;-74
2020/12/08 04:02:37;;;;;;;43.33;34.78;;;5.80;1.00;;;;;;5007946;28;20408;-74
2020/12/08 04:05:03;;;;;;;40.97;33.65;;;5.80;1.00;;;;;;5026171;28;20284;-74
2020/12/08 04:07:29;;;;;;;44.67;35.47;;;5.90;1.00;;;;;;5007566;28;21201;-74
2020/12/08 04:09:56;;;;;;;52.25;36.63;;;5.80;1.00;;;;;;5030984;28;20305;-74
2020/12/08 04:12:22;;;;;;;46.85;33.88;;;5.80;1.00;;;;;;5013382;28;20229;-73
2020/12/08 04:14:49;;;;;;;48.90;35.13;;;5.90;1.00;;;;;;5024675;28;20226;-74
2020/12/08 04:17:18;;;;;;;40.95;32.70;;;5.80;1.00;;;;;;5007850;28;20272;-75
2020/12/08 04:19:45;;;;;;;42.50;32.15;;;5.80;1.00;;;;;;5027614;28;20716;-74
2020/12/08 04:22:11;;;;;;;41.25;32.92;;;5.80;1.00;;;;;;4988647;28;20332;-75
2020/12/08 04:24:38;;;;;;;48.17;34.40;;;5.80;1.00;;;;;;5023746;28;20220;-74
2020/12/08 04:27:04;;;;;;;44.17;34.13;;;5.70;1.00;;;;;;5013301;28;20325;-74
2020/12/08 04:29:30;;;;;;;46.28;33.80;;;5.80;1.00;;;;;;5025076;28;20695;-74
2020/12/08 04:31:56;;;;;;;56.55;34.30;;;5.80;1.00;;;;;;5033416;28;20305;-74
2020/12/08 04:34:22;;;;;;;48.80;34.15;;;5.80;1.00;;;;;;5012230;28;20265;-74
2020/12/08 04:36:49;;;;;;;45.78;35.75;;;5.70;1.00;;;;;;5029036;28;20309;-74
2020/12/08 04:39:16;;;;;;;44.63;34.88;;;5.70;1.00;;;;;;5017838;28;20241;-74
2020/12/08 04:41:42;;;;;;;50.00;37.90;;;5.70;1.00;;;;;;5036308;28;20748;-74
2020/12/08 04:44:10;;;;;;;41.83;32.67;;;5.70;1.00;;;;;;5011576;28;20226;-75
2020/12/08 04:46:38;;;;;;;49.50;34.95;;;5.70;1.00;;;;;;5036943;28;20262;-75
2020/12/08 04:49:05;;;;;;;47.80;34.40;;;5.80;1.00;;;;;;5014336;28;20726;-75
2020/12/08 04:51:34;;;;;;;54.70;35.17;;;5.80;1.00;;;;;;5026264;28;20288;-75
2020/12/08 04:54:06;;;;;;;48.28;33.85;;;5.70;1.00;;;;;;5008625;28;20252;-75
2020/12/08 04:56:34;;;;;;;47.45;34.25;;;5.80;1.00;;;;;;5028582;28;20238;-74
2020/12/08 04:59:00;;;;;;;44.85;33.85;;;5.80;1.00;;;;;;5016477;28;20304;-75
2020/12/08 05:01:27;;;;;;;46.63;34.08;;;5.80;1.00;;;;;;5030001;28;20707;-72
2020/12/08 05:03:58;;;;;;;48.40;33.78;;;5.90;1.00;;;;;;5018050;28;20218;-74
2020/12/08 05:06:24;;;;;;;48.65;39.35;;;5.90;1.00;;;;;;5026448;28;20465;-73
2020/12/08 05:09:01;;;;;;;45.70;36.60;;;5.90;1.00;;;;;;5015973;28;20412;-71
2020/12/08 05:11:28;;;;;;;51.65;37.08;;;5.90;1.00;;;;;;5023911;28;20312;-74
2020/12/08 05:13:59;;;;;;;53.58;37.35;;;5.90;1.00;;;;;;5017059;28;20222;-73
2020/12/08 05:16:27;;;;;;;48.40;36.25;;;5.90;1.00;;;;;;5034992;28;21020;-74
2020/12/08 05:18:53;;;;;;;46.80;36.63;;;6.00;1.00;;;;;;5030591;28;20222;-74
2020/12/08 05:21:19;;;;;;;44.92;34.38;;;5.90;1.00;;;;;;5012118;28;20230;-74
2020/12/08 05:23:46;;;;;;;47.08;34.55;;;5.90;1.00;;;;;;5009419;28;20218;-74
2020/12/08 05:26:13;;;;;;;43.72;33.83;;;5.80;1.00;;;;;;5012374;28;20257;-73
2020/12/08 05:28:42;;;;;;;46.20;33.47;;;5.90;1.00;;;;;;5026489;28;20350;-74
2020/12/08 05:31:09;;;;;;;48.25;34.10;;;5.90;1.00;;;;;;5014723;28;20285;-73
2020/12/08 05:33:38;;;;;;;42.55;34.00;;;5.80;1.00;;;;;;5028332;28;21082;-73
2020/12/08 05:36:05;;;;;;;48.42;35.75;;;5.80;1.00;;;;;;5009117;28;20226;-73
2020/12/08 05:38:34;;;;;;;44.50;35.85;;;5.80;1.00;;;;;;5004364;28;20237;-72
2020/12/08 05:41:03;;;;;;;46.58;34.78;;;5.80;1.00;;;;;;5011079;28;20273;-72
2020/12/08 05:43:36;;;;;;;55.17;36.20;;;5.80;1.00;;;;;;5025262;28;20237;-73
2020/12/08 05:46:05;;;;;;;47.53;35.78;;;5.80;1.00;;;;;;5010309;28;20428;-72
2020/12/08 05:48:32;;;;;;;48.15;38.05;;;5.80;1.00;;;;;;5031952;28;20825;-72
2020/12/08 05:51:01;;;;;;;53.10;35.47;;;5.80;1.00;;;;;;5012293;28;20317;-72
2020/12/08 05:53:27;;;;;;;45.75;34.05;;;5.80;1.00;;;;;;5023503;28;20222;-73
2020/12/08 05:56:03;;;;;;;42.92;34.10;;;5.70;1.00;;;;;;5006535;28;20233;-73
2020/12/08 05:58:29;;;;;;;43.30;34.72;;;5.70;1.00;;;;;;5028998;28;21077;-73
2020/12/08 06:01:01;;;;;;;40.97;32.70;;;5.70;1.00;;;;;;5014294;28;20230;-74
2020/12/08 06:03:28;;;;;;;43.53;35.08;;;5.70;1.00;;;;;;5035634;28;21152;-74
2020/12/08 06:06:04;;;;;;;45.25;35.22;;;5.70;1.00;;;;;;5014780;28;20305;-74
2020/12/08 06:08:41;;;;;;;42.83;34.47;;;5.70;1.00;;;;;;5027043;28;20226;-73
2020/12/08 06:11:08;;;;;;;40.17;33.47;;;5.70;1.00;;;;;;5014594;28;20230;-72
2020/12/08 06:13:35;;;;;;;49.42;34.72;;;5.70;1.00;;;;;;5024235;28;20217;-73
2020/12/08 06:16:14;;;;;;;46.97;34.25;;;5.70;1.00;;;;;;5029714;28;20226;-73
2020/12/08 06:18:41;;;;;;;39.53;32.00;;;5.70;1.00;;;;;;5045691;28;20214;-73
2020/12/08 06:21:19;;;;;;;48.67;35.05;;;5.80;1.00;;;;;;5044710;28;20341;-72
2020/12/08 06:23:45;;;;;;;51.22;37.95;;;5.70;1.00;;;;;;5039076;28;20223;-74
2020/12/08 06:26:11;;;;;;;46.33;33.35;;;5.70;1.00;;;;;;5054091;28;20234;-72
2020/12/08 06:28:37;;;;;;;44.10;35.42;;;5.70;1.00;;;;;;5029813;28;20250;-73
2020/12/08 06:31:05;;;;;;;48.13;34.90;;;5.60;1.00;;;;;;5029063;28;20234;-73
2020/12/08 06:33:32;;;;;;;48.08;35.40;;;5.70;1.00;;;;;;5018102;28;20236;-73
2020/12/08 06:36:01;;;;;;;48.85;35.30;;;5.70;1.00;;;;;;5032313;28;20230;-75
2020/12/08 06:38:27;;;;;;;45.65;34.25;;;5.70;1.00;;;;;;5020253;28;20266;-73
2020/12/08 06:40:55;;;;;;;46.40;34.45;;;5.70;1.00;;;;;;5037797;28;20282;-73
2020/12/08 06:43:22;;;;;;;44.50;34.03;;;5.70;1.00;;;;;;5026510;28;20751;-75
2020/12/08 06:45:48;;;;;;;43.42;34.30;;;5.70;1.00;;;;;;5030328;28;20589;-73
2020/12/08 06:48:16;;;;;;;50.80;35.13;;;5.80;1.00;;;;;;5027869;28;20222;-72
2020/12/08 06:50:42;;;;;;;45.42;36.33;;;5.80;1.00;;;;;;5032459;28;20945;-73
2020/12/08 06:53:09;;;;;;;45.90;34.88;;;5.80;1.00;;;;;;5033680;28;20233;-72
2020/12/08 06:55:43;;;;;;;46.33;33.55;;;5.80;1.00;;;;;;5025251;28;20206;-73
2020/12/08 06:58:09;;;;;;;43.90;34.67;;;5.80;1.00;;;;;;5030291;28;20337;-75
2020/12/08 07:00:36;;;;;;;43.42;32.13;;;5.80;1.00;;;;;;5018155;28;20245;-74
2020/12/08 07:03:03;;;;;;;47.90;34.33;;;5.80;1.00;;;;;;5030778;28;20262;-74
2020/12/08 07:05:30;;;;;;;48.10;33.75;;;5.70;1.00;;;;;;5019503;28;20233;-75
2020/12/08 07:07:59;;;;;;;45.08;33.90;;;5.70;1.00;;;;;;5029955;28;20237;-74
2020/12/08 07:10:26;;;;;;;48.72;34.30;;;5.60;1.00;;;;;;5024812;28;20785;-73
2020/12/08 07:12:53;;;;;;;40.65;34.00;;;5.60;1.00;;;;;;5030125;28;20732;-73
2020/12/08 07:15:21;;;;;;;41.90;31.52;;;5.60;1.00;;;;;;5023896;28;20231;-73
2020/12/08 07:17:55;;;;;;;41.75;33.08;;;5.60;1.00;;;;;;5027352;28;20781;-73
2020/12/08 07:20:22;;;;;;;44.83;32.75;;;5.60;1.00;;;;;;5028074;28;20965;-72
2020/12/08 07:22:48;;;;;;;53.40;38.58;;;5.60;1.00;;;;;;5029003;28;20229;-75
2020/12/08 07:25:17;;;;;;;43.47;33.05;;;5.60;1.00;;;;;;5015293;28;20302;-73
2020/12/08 07:27:46;;;;;;;52.03;32.95;;;5.60;1.00;;;;;;5017330;28;20233;-73
2020/12/08 07:30:14;;;;;;;43.17;32.10;;;5.60;1.00;;;;;;5031204;28;20317;-73
2020/12/08 07:32:40;;;;;;;46.13;33.25;;;5.60;1.00;;;;;;5022784;28;31261;-74
2020/12/08 07:35:17;;;;;;;50.35;34.85;;;5.60;1.00;;;;;;5044003;28;20253;-74
2020/12/08 07:37:44;;;;;;;49.72;34.67;;;5.60;1.00;;;;;;5019910;28;20313;-73
2020/12/08 07:40:11;;;;;;;42.17;34.30;;;5.60;1.00;;;;;;5028769;28;20248;-73
2020/12/08 07:42:38;;;;;;;50.35;36.50;;;5.60;1.00;;;;;;5036929;28;20925;-73
2020/12/08 07:45:09;;;;;;;50.15;33.17;;;5.70;1.00;;;;;;5018658;28;20994;-74
2020/12/08 07:47:35;;;;;;;41.78;33.03;;;5.70;1.00;;;;;;5034299;28;20227;-74
2020/12/08 07:50:02;;;;;;;44.00;33.15;;;5.70;1.00;;;;;;5024249;28;20222;-72
2020/12/08 07:52:28;;;;;;;42.83;32.47;;;5.60;1.00;;;;;;5019586;28;20264;-73
2020/12/08 07:54:54;;;;;;;49.65;40.00;;;5.60;1.00;;;;;;5021328;28;20234;-73
2020/12/08 07:57:20;;;;;;;50.15;33.35;;;5.60;1.00;;;;;;5037007;28;20230;-73
2020/12/08 07:59:46;;;;;;;39.00;32.50;;;5.60;1.00;;;;;;5030116;28;20229;-72
2020/12/08 08:02:14;;;;;;;42.88;33.42;;;5.50;1.00;;;;;;5027039;28;20222;-74
2020/12/08 08:04:41;;;;;;;36.80;31.17;;;5.50;1.00;;;;;;5006584;28;20264;-73
2020/12/08 08:07:08;;;;;;;43.92;31.42;;;5.60;1.00;;;;;;5033601;28;20297;-72
2020/12/08 08:09:34;;;;;;;43.63;32.10;;;5.70;1.00;;;;;;5013900;28;21010;-73
2020/12/08 08:12:02;;;;;;;40.55;32.08;;;5.80;1.00;;;;;;5030473;28;20725;-73
2020/12/08 08:14:28;;;;;;;42.55;31.55;;;5.90;1.00;;;;;;5021793;28;20233;-73
2020/12/08 08:16:55;;;;;;;42.50;30.67;;;6.00;1.00;;;;;;5033778;28;20237;-73
2020/12/08 08:19:23;;;;;;;41.58;32.13;;;6.00;1.00;;;;;;5023621;28;20296;-73
2020/12/08 08:21:49;;;;;;;55.58;41.75;;;5.80;1.00;;;;;;5028124;28;20226;-72
2020/12/08 08:24:16;;;;;;;43.22;32.25;;;5.90;1.00;;;;;;5032335;28;20286;-73
2020/12/08 08:26:43;;;;;;;44.42;31.88;;;6.00;1.00;;;;;;5020632;28;20321;-72
2020/12/08 08:29:10;;;;;;;44.45;32.60;;;6.20;1.00;;;;;;5032875;28;20986;-76
2020/12/08 08:31:37;;;;;;;37.92;32.40;;;6.30;1.00;;;;;;5000125;28;20244;-74
2020/12/08 08:34:04;;;;;;;39.42;32.58;;;6.30;1.00;;;;;;5032099;28;20265;-73
2020/12/08 08:36:31;;;;;;;45.10;34.33;;;6.30;1.00;;;;;;5032738;28;20226;-73
2020/12/08 08:38:58;;;;;;;45.13;31.58;;;6.30;1.00;;;;;;5026362;28;20420;-71
2020/12/08 08:41:25;;;;;;;46.70;31.70;;;6.20;1.00;;;;;;5022534;28;20237;-71
2020/12/08 08:43:52;;;;;;;45.80;33.22;;;6.00;1.00;;;;;;5034677;28;20240;-73
2020/12/08 08:46:18;;;;;;;43.42;33.10;;;5.90;1.00;;;;;;5002147;28;20226;-72
2020/12/08 08:48:45;;;;;;;37.97;29.75;;;5.90;1.00;;;;;;5032396;28;20222;-73
2020/12/08 08:51:12;;;;;;;42.88;33.30;;;5.90;1.00;;;;;;5019186;28;20261;-74
2020/12/08 08:53:39;;;;;;;40.08;32.90;;;5.80;1.00;;;;;;5039977;28;21022;-73
2020/12/08 08:56:06;;;;;;;44.63;33.97;;;5.80;1.00;;;;;;5023067;28;20217;-72
2020/12/08 08:58:32;;;;;;;44.83;33.88;;;5.80;1.00;;;;;;5039238;28;20256;-73
2020/12/08 09:00:59;;;;;;;41.97;33.03;;;5.70;1.00;;;;;;5019461;28;20237;-72
2020/12/08 09:03:26;;;;;;;49.70;32.88;;;5.80;1.00;;;;;;5035388;28;20233;-73
2020/12/08 09:05:53;;;;;;;42.75;32.83;;;5.80;1.00;;;;;;5035597;28;21001;-73
2020/12/08 09:08:24;;;;;;;47.28;33.45;;;5.90;1.00;;;;;;5007453;28;20721;-73
2020/12/08 09:10:51;;;;;;;44.47;34.65;;;6.00;1.00;;;;;;5041961;28;20743;-73
2020/12/08 09:13:21;;;;;;;45.28;32.78;;;6.10;1.00;;;;;;4995743;28;20221;-71
2020/12/08 09:15:48;;;;;;;53.88;35.38;;;6.10;1.00;;;;;;5043316;28;20230;-72
2020/12/08 09:18:15;;;;;;;41.88;33.47;;;6.20;1.00;;;;;;5042352;28;20253;-73
2020/12/08 09:20:42;;;;;;;38.10;30.58;;;6.20;1.00;;;;;;5021867;28;20293;-73
2020/12/08 09:23:09;;;;;;;50.28;37.30;;;6.20;1.00;;;;;;5033635;28;20258;-72
2020/12/08 09:25:35;;;;;;;61.67;42.15;;;6.20;1.00;;;;;;5024993;28;20229;-73
2020/12/08 09:28:03;;;;;;;48.70;36.85;;;6.20;1.00;;;;;;5033551;28;20236;-73
2020/12/08 09:30:29;;;;;;;45.92;37.75;;;6.20;1.00;;;;;;5018634;28;21144;-72
2020/12/08 09:32:56;;;;;;;45.50;33.63;;;6.20;1.00;;;;;;5036803;28;20230;-72
2020/12/08 09:35:23;;;;;;;45.20;34.80;;;6.30;1.00;;;;;;5003105;28;20292;-74
2020/12/08 09:37:50;;;;;;;47.50;35.90;;;6.30;1.00;;;;;;5016015;28;20248;-75
2020/12/08 09:40:16;;;;;;;41.42;31.73;;;6.40;1.00;;;;;;5020266;28;20229;-73
2020/12/08 09:42:44;;;;;;;43.38;32.10;;;6.50;1.00;;;;;;5029131;28;20207;-73
2020/12/08 09:45:12;;;;;;;44.97;31.98;;;6.50;1.00;;;;;;5017839;28;20284;-73
2020/12/08 09:47:39;;;;;;;39.50;33.05;;;6.50;1.00;;;;;;5024248;28;20230;-72
2020/12/08 09:50:09;;;;;;;42.92;33.03;;;6.70;1.00;;;;;;5018046;28;21492;-73
2020/12/08 09:52:35;;;;;;;40.13;31.00;;;7.00;1.00;;;;;;5029950;28;20261;-73
2020/12/08 09:55:02;;;;;;;41.60;31.23;;;7.30;1.00;;;;;;5022621;28;20226;-73
2020/12/08 09:57:29;;;;;;;41.40;33.28;;;7.40;1.00;;;;;;5030553;28;20756;-73
2020/12/08 09:59:56;;;;;;;36.05;30.65;;;7.20;1.00;;;;;;5030542;28;20335;-73
2020/12/08 10:02:24;;;;;;;39.10;31.00;;;7.40;1.00;;;;;;5026865;28;20221;-73
2020/12/08 10:04:51;;;;;;;39.20;29.70;;;7.90;1.00;;;;;;5031092;28;20234;-73
2020/12/08 10:07:19;;;;;;;37.42;29.95;;;8.00;1.00;;;;;;5023917;28;21346;-74
2020/12/08 10:09:46;;;;;;;45.15;35.35;;;8.00;1.00;;;;;;5025849;28;20411;-73
2020/12/08 10:12:13;;;;;;;44.60;30.25;;;8.00;1.00;;;;;;5019699;28;20225;-74
2020/12/08 10:14:42;;;;;;;38.88;31.75;;;8.50;1.00;;;;;;5032794;28;20290;-74
2020/12/08 10:17:10;;;;;;;40.20;31.40;;;8.70;1.00;;;;;;5029232;28;20226;-74
2020/12/08 10:19:38;;;;;;;37.33;32.55;;;8.70;1.00;;;;;;5035795;28;20245;-74
2020/12/08 10:22:05;;;;;;;41.08;34.22;;;8.70;1.00;;;;;;5019521;28;21002;-74
2020/12/08 10:24:32;;;;;;;36.00;31.50;;;8.50;1.00;;;;;;5015340;28;20228;-74
2020/12/08 10:26:59;;;;;;;42.83;31.00;;;8.20;1.00;;;;;;5022018;28;20222;-75
2020/12/08 10:29:25;;;;;;;38.15;29.00;;;8.30;1.00;;;;;;5035483;28;20226;-73
2020/12/08 10:31:53;;;;;;;35.88;28.88;;;8.80;1.00;;;;;;5007518;28;20241;-73
2020/12/08 10:34:20;;;;;;;39.65;30.90;;;8.70;1.00;;;;;;5046494;28;20230;-72
2020/12/08 10:36:48;;;;;;;43.63;32.05;;;9.00;1.00;;;;;;5031910;28;20246;-73
2020/12/08 10:39:15;;;;;;;37.80;32.45;;;9.20;1.00;;;;;;5039904;28;20308;-72
2020/12/08 10:41:44;;;;;;;40.88;30.95;;;9.30;1.00;;;;;;5025215;28;20230;-72
2020/12/08 10:44:11;;;;;;;39.95;28.80;;;9.40;1.00;;;;;;5033476;28;20227;-72
2020/12/08 10:46:38;;;;;;;34.00;30.38;;;9.40;1.00;;;;;;5036737;28;20237;-73
2020/12/08 10:49:05;;;;;;;40.10;33.88;;;9.30;1.00;;;;;;5018862;28;20491;-73
2020/12/08 10:51:32;;;;;;;36.08;32.10;;;9.20;1.00;;;;;;5038392;28;20237;-72
2020/12/08 10:54:00;;;;;;;37.47;30.75;;;9.20;1.00;;;;;;5020768;28;20241;-72
2020/12/08 10:56:27;;;;;;;38.70;31.08;;;8.80;1.00;;;;;;5031637;28;20232;-73
2020/12/08 10:58:54;;;;;;;35.03;29.92;;;9.20;1.00;;;;;;5022510;28;20245;-72
2020/12/08 11:01:22;;;;;;;40.65;29.73;;;9.60;1.00;;;;;;5037223;28;20241;-73
2020/12/08 11:03:50;;;;;;;34.38;28.58;;;9.80;1.00;;;;;;5002080;28;21017;-72
2020/12/08 11:06:20;;;;;;;40.67;30.95;;;10.10;1.00;;;;;;5034284;28;20226;-74
2020/12/08 11:08:48;;;;;;;36.22;30.15;;;10.60;1.00;;;;;;5019412;28;20334;-72
2020/12/08 11:11:21;;;;;;;35.30;27.60;;;10.90;1.00;;;;;;5032103;28;20234;-73
2020/12/08 11:13:47;;;;;;;38.10;29.13;;;10.80;1.00;;;;;;5024760;28;20226;-73
2020/12/08 11:16:14;;;;;;;36.72;28.90;;;10.60;1.00;;;;;;5029056;28;20291;-72
2020/12/08 11:18:41;;;;;;;34.88;27.88;;;10.90;1.00;;;;;;5019066;28;20281;-74
2020/12/08 11:21:08;;;;;;;36.42;29.63;;;11.10;1.00;;;;;;5033695;28;20226;-73
2020/12/08 11:23:35;;;;;;;35.38;28.63;;;11.10;1.00;;;;;;5016682;28;20232;-72
2020/12/08 11:26:01;;;;;;;32.50;27.55;;;11.20;1.00;;;;;;5012647;28;20716;-72
2020/12/08 11:28:29;;;;;;;34.55;28.58;;;11.00;1.00;;;;;;5020085;28;20222;-74
2020/12/08 11:30:56;;;;;;;37.03;30.02;;;11.20;1.00;;;;;;5032065;28;20311;-73
2020/12/08 11:33:22;;;;;;;31.50;27.40;;;11.30;1.00;;;;;;5036300;28;20224;-73
2020/12/08 11:35:50;;;;;;;37.22;28.40;;;11.50;1.00;;;;;;5020015;28;20214;-73
2020/12/08 11:38:17;;;;;;;32.00;27.67;;;11.90;1.00;;;;;;5029463;28;20235;-73
2020/12/08 11:40:44;;;;;;;40.50;29.23;;;11.80;1.00;;;;;;5019694;28;20235;-73
2020/12/08 11:43:11;;;;;;;33.77;28.63;;;12.10;1.00;;;;;;5037460;28;20450;-72
2020/12/08 11:45:38;;;;;;;35.50;29.10;;;12.00;1.00;;;;;;5028042;28;21267;-74
2020/12/08 11:48:05;;;;;;;32.50;28.23;;;11.80;1.00;;;;;;5032228;28;20505;-72
2020/12/08 11:50:32;;;;;;;32.83;28.57;;;12.10;1.00;;;;;;5018508;28;20458;-73
2020/12/08 11:52:58;;;;;;;30.83;27.63;;;12.30;1.00;;;;;;5033073;28;20471;-71
2020/12/08 11:55:25;;;;;;;33.90;28.83;;;12.50;1.00;;;;;;5023343;28;21655;-74
2020/12/08 11:57:52;;;;;;;33.47;28.23;;;12.50;1.00;;;;;;5032937;28;20461;-75
2020/12/08 12:00:19;;;;;;;33.33;28.73;;;12.50;1.00;;;;;;5019726;28;20281;-74
2020/12/08 12:02:46;;;;;;;33.30;28.80;;;12.10;1.00;;;;;;5030033;28;20474;-74
2020/12/08 12:05:13;;;;;;;35.25;30.17;;;12.00;1.00;;;;;;5001428;28;20304;-74
2020/12/08 12:07:40;;;;;;;39.72;30.92;;;12.30;1.00;;;;;;5038121;28;20222;-76
2020/12/08 12:10:07;;;;;;;38.92;31.80;;;12.00;1.00;;;;;;5018243;28;20432;-74
2020/12/08 12:12:33;;;;;;;36.83;32.90;;;12.40;1.00;;;;;;5017163;28;20927;-74
2020/12/08 12:15:00;;;;;;;35.17;30.52;;;12.70;1.00;;;;;;5018361;28;20441;-76
2020/12/08 12:17:27;;;;;;;34.40;29.83;;;12.60;1.00;;;;;;5034203;28;20225;-74
2020/12/08 12:19:54;;;;;;;38.67;31.90;;;12.60;1.00;;;;;;5024871;28;21316;-75
2020/12/08 12:22:23;;;;;;;34.50;30.20;;;12.50;1.00;;;;;;5032619;28;20448;-74
2020/12/08 12:24:49;;;;;;;35.27;30.27;;;12.70;1.00;;;;;;5023664;28;20461;-73
2020/12/08 12:27:16;;;;;;;35.90;31.33;;;13.00;1.00;;;;;;5039800;28;20524;-76
2020/12/08 12:29:43;;;;;;;39.60;31.67;;;13.30;1.00;;;;;;5035403;28;20475;-75
2020/12/08 12:32:10;;;;;;;35.70;31.90;;;13.40;1.00;;;;;;5038603;28;21075;-72
2020/12/08 12:34:38;;;;;;;35.90;31.03;;;13.30;1.00;;;;;;5044309;28;20447;-74
2020/12/08 12:37:06;;;;;;;40.10;32.10;;;13.00;1.00;;;;;;5024974;28;20442;-72
2020/12/08 12:39:33;;;;;;;37.47;31.37;;;12.60;1.00;;;;;;5036100;28;20453;-74
2020/12/08 12:41:59;;;;;;;35.43;31.50;;;12.80;1.00;;;;;;5025132;28;20518;-73
2020/12/08 12:44:26;;;;;;;43.23;31.73;;;12.80;1.00;;;;;;5039662;28;20446;-73